createdAt,value
2023-04-24T00:01:37.867Z,99458.75
2023-04-24T00:04:05.733Z,99464.94
2023-04-24T00:06:34.844Z,99470.63
2023-04-24T00:09:03.500Z,99467.47
2023-04-24T00:11:31.708Z,99472.41
2023-04-24T00:14:01.405Z,99455.56
2023-04-24T00:16:30.849Z,99458.78
2023-04-24T00:18:58.434Z,99452.34
2023-04-24T00:21:26.540Z,99457.72
2023-04-24T00:23:55.051Z,99464.75
2023-04-24T00:26:22.733Z,99451.63
2023-04-24T00:28:50.552Z,99452.28
2023-04-24T00:31:18.390Z,99446.06
2023-04-24T00:33:47.452Z,99450.78
2023-04-24T00:36:15.309Z,99456.38
2023-04-24T00:38:43.069Z,99449.69
2023-04-24T00:41:10.809Z,99449.44
2023-04-24T00:43:38.738Z,99455.13
2023-04-24T00:46:07.030Z,99457.50
2023-04-24T00:48:35.523Z,99466.88
2023-04-24T00:51:04.772Z,99475.34
2023-04-24T00:53:32.602Z,99466.63
2023-04-24T00:56:01.690Z,99468.38
2023-04-24T00:58:29.642Z,99468.19
2023-04-24T01:00:58.548Z,99475.44
2023-04-24T01:03:30.923Z,99482.28
2023-04-24T01:05:58.716Z,99489.03
2023-04-24T01:08:29.956Z,99490.59
2023-04-24T01:10:59.331Z,99490.50
2023-04-24T01:13:26.910Z,99479.56
2023-04-24T01:15:54.521Z,99487.50
2023-04-24T01:18:22.772Z,99476.91
2023-04-24T01:20:54.927Z,99469.19
2023-04-24T01:23:23.959Z,99467.94
2023-04-24T01:25:52.294Z,99470.16
2023-04-24T01:28:19.983Z,99461.84
2023-04-24T01:30:50.063Z,99464.47
2023-04-24T01:33:17.909Z,99466.53
2023-04-24T01:35:45.654Z,99468.19
2023-04-24T01:38:13.303Z,99470.84
2023-04-24T01:40:42.392Z,99475.25
2023-04-24T01:43:10.152Z,99469.81
2023-04-24T01:45:37.782Z,99472.50
2023-04-24T01:48:06.080Z,99461.63
2023-04-24T01:50:33.953Z,99466.22
2023-04-24T01:53:01.659Z,99456.19
2023-04-24T01:55:29.421Z,99454.34
2023-04-24T01:57:58.787Z,99453.53
2023-04-24T02:00:26.562Z,99448.72
2023-04-24T02:02:54.298Z,99461.72
2023-04-24T02:05:22.307Z,99452.91
2023-04-24T02:07:49.953Z,99462.06
2023-04-24T02:10:17.685Z,99459.25
2023-04-24T02:12:45.482Z,99458.34
2023-04-24T02:15:14.428Z,99450.59
2023-04-24T02:17:42.109Z,99444.00
2023-04-24T02:20:10.243Z,99446.38
2023-04-24T02:22:37.868Z,99435.28
2023-04-24T02:25:06.273Z,99432.91
2023-04-24T02:27:33.827Z,99433.25
2023-04-24T02:30:01.609Z,99442.38
2023-04-24T02:32:31.803Z,99433.41
2023-04-24T02:35:00.275Z,99432.66
2023-04-24T02:37:28.052Z,99423.94
2023-04-24T02:39:55.627Z,99433.16
2023-04-24T02:42:23.267Z,99438.59
2023-04-24T02:44:52.227Z,99438.97
2023-04-24T02:47:19.914Z,99442.16
2023-04-24T02:49:48.843Z,99444.97
2023-04-24T02:52:17.692Z,99439.53
2023-04-24T02:54:45.462Z,99444.16
2023-04-24T02:57:13.066Z,99444.81
2023-04-24T02:59:40.901Z,99447.47
2023-04-24T03:02:09.030Z,99444.38
2023-04-24T03:04:37.426Z,99442.22
2023-04-24T03:07:06.638Z,99445.66
2023-04-24T03:09:34.277Z,99450.59
2023-04-24T03:12:02.009Z,99445.66
2023-04-24T03:14:32.131Z,99443.41
2023-04-24T03:17:00.023Z,99447.31
2023-04-24T03:19:27.600Z,99443.41
2023-04-24T03:21:55.582Z,99442.50
2023-04-24T03:24:24.476Z,99447.94
2023-04-24T03:26:52.074Z,99445.38
2023-04-24T03:29:19.684Z,99437.72
2023-04-24T03:31:47.290Z,99435.00
2023-04-24T03:34:15.100Z,99427.22
2023-04-24T03:36:42.786Z,99425.09
2023-04-24T03:39:11.039Z,99429.84
2023-04-24T03:41:42.604Z,99425.34
2023-04-24T03:44:10.109Z,99425.50
2023-04-24T03:46:37.713Z,99416.75
2023-04-24T03:49:05.461Z,99414.31
2023-04-24T03:51:33.231Z,99422.84
2023-04-24T03:54:00.929Z,99420.13
2023-04-24T03:56:28.571Z,99413.41
2023-04-24T03:58:57.529Z,99410.44
2023-04-24T04:01:25.480Z,99401.72
2023-04-24T04:03:53.190Z,99414.84
2023-04-24T04:06:22.481Z,99409.28
2023-04-24T04:08:52.591Z,99401.25
2023-04-24T04:11:20.770Z,99399.84
2023-04-24T04:13:49.028Z,99404.34
2023-04-24T04:16:18.639Z,99407.75
2023-04-24T04:18:46.443Z,99412.50
2023-04-24T04:21:14.107Z,99418.25
2023-04-24T04:23:41.715Z,99417.09
2023-04-24T04:26:09.824Z,99409.91
2023-04-24T04:28:38.832Z,99413.81
2023-04-24T04:31:06.714Z,99417.22
2023-04-24T04:33:37.187Z,99411.22
2023-04-24T04:36:05.132Z,99409.09
2023-04-24T04:38:32.767Z,99411.34
2023-04-24T04:41:00.434Z,99415.09
2023-04-24T04:43:28.188Z,99413.94
2023-04-24T04:45:57.057Z,99412.25
2023-04-24T04:48:24.758Z,99423.91
2023-04-24T04:50:53.790Z,99420.63
2023-04-24T04:53:21.452Z,99425.94
2023-04-24T04:55:49.214Z,99423.91
2023-04-24T04:58:16.872Z,99417.78
2023-04-24T05:00:45.084Z,99430.50
2023-04-24T05:03:20.549Z,99426.97
2023-04-24T05:05:49.229Z,99428.38
2023-04-24T05:08:26.559Z,99424.13
2023-04-24T05:10:56.637Z,99419.88
2023-04-24T05:15:54.857Z,99430.75
2023-04-24T05:18:22.719Z,99429.94
2023-04-24T05:20:52.496Z,99428.88
2023-04-24T05:23:21.464Z,99428.72
2023-04-24T05:25:49.361Z,99440.28
2023-04-24T05:28:18.124Z,99437.69
2023-04-24T05:30:45.903Z,99440.41
2023-04-24T05:33:14.957Z,99445.22
2023-04-24T05:35:46.546Z,99448.91
2023-04-24T05:38:14.981Z,99454.75
2023-04-24T05:40:43.890Z,99454.97
2023-04-24T05:43:11.474Z,99457.50
2023-04-24T05:45:40.576Z,99461.06
2023-04-24T05:48:10.465Z,99459.28
2023-04-24T05:50:38.205Z,99461.00
2023-04-24T05:53:07.963Z,99463.69
2023-04-24T05:55:36.736Z,99450.41
2023-04-24T05:58:05.827Z,99446.47
2023-04-24T06:00:34.034Z,99452.94
2023-04-24T06:03:04.675Z,99449.25
2023-04-24T06:05:33.020Z,99458.00
2023-04-24T06:08:00.765Z,99453.16
2023-04-24T06:10:28.433Z,99455.16
2023-04-24T06:12:57.198Z,99453.75
2023-04-24T06:15:26.112Z,99456.13
2023-04-24T06:17:53.950Z,99464.63
2023-04-24T06:20:21.869Z,99462.84
2023-04-24T06:22:49.556Z,99471.63
2023-04-24T06:25:17.203Z,99469.59
2023-04-24T06:27:44.875Z,99465.59
2023-04-24T06:30:13.204Z,99466.00
2023-04-24T06:32:42.326Z,99463.63
2023-04-24T06:35:10.850Z,99461.03
2023-04-24T06:37:38.622Z,99461.03
2023-04-24T06:40:08.770Z,99470.59
2023-04-24T06:42:36.883Z,99471.91
2023-04-24T06:45:06.014Z,99472.72
2023-04-24T06:47:34.079Z,99473.78
2023-04-24T06:50:03.181Z,99477.75
2023-04-24T06:52:33.874Z,99474.72
2023-04-24T06:55:05.182Z,99476.31
2023-04-24T06:57:33.290Z,99483.63
2023-04-24T07:00:00.965Z,99482.06
2023-04-24T07:02:28.691Z,99489.19
2023-04-24T07:04:56.477Z,99494.03
2023-04-24T07:07:30.840Z,99496.75
2023-04-24T07:09:59.392Z,99488.13
2023-04-24T07:12:27.303Z,99494.63
2023-04-24T07:14:55.217Z,99494.41
2023-04-24T07:17:22.939Z,99487.31
2023-04-24T07:19:50.980Z,99486.63
2023-04-24T07:22:19.269Z,99493.19
2023-04-24T07:24:48.259Z,99485.81
2023-04-24T07:27:16.374Z,99496.09
2023-04-24T07:29:44.474Z,99498.38
2023-04-24T07:32:12.364Z,99504.53
2023-04-24T07:34:39.985Z,99500.25
2023-04-24T07:37:07.657Z,99512.75
2023-04-24T07:39:35.533Z,99511.59
2023-04-24T07:42:05.253Z,99517.81
2023-04-24T07:44:33.116Z,99517.16
2023-04-24T07:47:00.945Z,99508.31
2023-04-24T07:49:28.875Z,99526.56
2023-04-24T07:51:56.479Z,99524.75
2023-04-24T07:54:24.203Z,99533.53
2023-04-24T07:56:52.144Z,99531.41
2023-04-24T07:59:21.050Z,99529.22
2023-04-24T08:01:48.744Z,99530.38
2023-04-24T08:04:16.866Z,99528.50
2023-04-24T08:06:44.630Z,99527.34
2023-04-24T08:09:12.423Z,99537.94
2023-04-24T08:11:40.276Z,99541.16
2023-04-24T08:14:08.038Z,99533.34
2023-04-24T08:16:37.463Z,99534.03
2023-04-24T08:19:05.597Z,99538.88
2023-04-24T08:21:35.709Z,99541.06
2023-04-24T08:24:06.080Z,99542.31
2023-04-24T08:26:33.724Z,99549.84
2023-04-24T08:29:01.348Z,99548.00
2023-04-24T08:31:29.014Z,99554.44
2023-04-24T08:33:58.005Z,99557.16
2023-04-24T08:36:33.154Z,99550.72
2023-04-24T08:39:11.429Z,99549.19
2023-04-24T08:41:39.853Z,99562.09
2023-04-24T08:44:10.555Z,99555.97
2023-04-24T08:46:39.267Z,99560.47
2023-04-24T08:49:08.303Z,99559.66
2023-04-24T08:51:38.520Z,99569.53
2023-04-24T08:54:06.816Z,99562.38
2023-04-24T08:56:38.638Z,99578.69
2023-04-24T08:59:07.303Z,99562.69
2023-04-24T09:01:36.001Z,99558.16
2023-04-24T09:04:05.793Z,99551.31
2023-04-24T09:06:36.206Z,99574.31
2023-04-24T09:09:04.471Z,99556.59
2023-04-24T09:11:32.972Z,99563.03
2023-04-24T09:14:01.558Z,99567.19
2023-04-24T09:16:30.978Z,99565.00
2023-04-24T09:18:58.669Z,99568.47
2023-04-24T09:21:33.404Z,99571.19
2023-04-24T09:24:04.332Z,99576.16
2023-04-24T09:26:33.849Z,99565.75
2023-04-24T09:29:01.775Z,99575.41
2023-04-24T09:31:31.245Z,99573.13
2023-04-24T09:34:02.785Z,99577.97
2023-04-24T09:36:34.039Z,99577.63
2023-04-24T09:39:04.013Z,99580.69
2023-04-24T09:41:31.821Z,99576.00
2023-04-24T09:44:13.065Z,99581.28
2023-04-24T09:46:40.823Z,99587.50
2023-04-24T09:49:11.778Z,99593.53
2023-04-24T09:51:40.730Z,99583.19
2023-04-24T09:54:16.700Z,99589.72
2023-04-24T09:56:46.149Z,99580.97
2023-04-24T09:59:15.029Z,99582.75
2023-04-24T10:01:45.453Z,99585.78
2023-04-24T10:04:21.596Z,99579.75
2023-04-24T10:06:51.020Z,99585.66
2023-04-24T10:09:21.078Z,99575.19
2023-04-24T10:11:50.982Z,99583.00
2023-04-24T10:14:20.097Z,99575.84
2023-04-24T10:16:48.666Z,99582.56
2023-04-24T10:19:19.587Z,99571.97
2023-04-24T10:21:48.183Z,99575.88
2023-04-24T10:24:17.202Z,99573.75
2023-04-24T10:26:49.144Z,99574.59
2023-04-24T10:29:18.794Z,99578.22
2023-04-24T10:31:47.675Z,99573.94
2023-04-24T10:34:18.513Z,99583.16
2023-04-24T10:36:53.533Z,99580.84
2023-04-24T10:39:27.080Z,99579.63
2023-04-24T10:41:58.296Z,99578.09
2023-04-24T10:44:26.503Z,99578.72
2023-04-24T10:46:55.714Z,99576.47
2023-04-24T10:49:30.743Z,99579.44
2023-04-24T10:52:06.206Z,99586.19
2023-04-24T10:54:37.706Z,99583.47
2023-04-24T10:57:39.938Z,99586.09
2023-04-24T11:00:29.046Z,99588.22
2023-04-24T11:02:58.072Z,99585.38
2023-04-24T11:05:52.455Z,99583.16
2023-04-24T11:08:26.772Z,99592.22
2023-04-24T11:10:59.749Z,99590.16
2023-04-24T11:13:30.177Z,99586.03
2023-04-24T11:16:17.471Z,99587.09
2023-04-24T11:18:47.396Z,99587.34
2023-04-24T11:21:15.077Z,99595.06
2023-04-24T11:23:42.823Z,99590.22
2023-04-24T11:26:15.121Z,99596.00
2023-04-24T11:28:51.107Z,99580.91
2023-04-24T11:31:41.504Z,99583.59
2023-04-24T11:34:11.254Z,99579.25
2023-04-24T11:36:38.938Z,99580.97
2023-04-24T11:39:07.125Z,99581.66
2023-04-24T11:41:36.023Z,99590.63
2023-04-24T11:44:07.502Z,99584.03
2023-04-24T11:46:35.366Z,99588.88
2023-04-24T11:49:03.160Z,99586.88
2023-04-24T11:51:36.671Z,99591.16
2023-04-24T11:54:11.660Z,99587.16
2023-04-24T11:56:39.811Z,99594.69
2023-04-24T11:59:09.650Z,99598.47
2023-04-24T12:01:45.348Z,99594.91
2023-04-24T12:04:13.557Z,99594.78
2023-04-24T12:06:41.539Z,99594.31
2023-04-24T12:09:17.696Z,99595.16
2023-04-24T12:11:54.916Z,99587.69
2023-04-24T12:14:23.858Z,99602.91
2023-04-24T12:16:52.250Z,99603.97
2023-04-24T12:19:22.326Z,99599.41
2023-04-24T12:22:01.808Z,99598.31
2023-04-24T12:24:29.531Z,99612.38
2023-04-24T12:26:57.365Z,99610.41
2023-04-24T12:29:26.835Z,99616.78
2023-04-24T12:31:54.603Z,99613.69
2023-04-24T12:34:23.475Z,99613.94
2023-04-24T12:36:51.299Z,99620.50
2023-04-24T12:39:19.360Z,99616.81
2023-04-24T12:41:58.106Z,99626.06
2023-04-24T12:44:35.369Z,99630.63
2023-04-24T12:47:03.420Z,99634.19
2023-04-24T12:49:32.657Z,99641.63
2023-04-24T12:52:00.497Z,99646.38
2023-04-24T12:54:34.381Z,99643.91
2023-04-24T12:57:02.407Z,99648.06
2023-04-24T12:59:30.001Z,99664.09
2023-04-24T13:01:58.999Z,99662.69
2023-04-24T13:04:29.130Z,99679.81
2023-04-24T13:06:56.745Z,99674.38
2023-04-24T13:09:24.954Z,99685.91
2023-04-24T13:11:52.668Z,99685.31
2023-04-24T13:14:20.568Z,99687.44
2023-04-24T13:16:48.178Z,99704.22
2023-04-24T13:19:17.322Z,99709.03
2023-04-24T13:21:44.882Z,99707.69
2023-04-24T13:24:13.889Z,99708.78
2023-04-24T13:26:41.634Z,99710.81
2023-04-24T13:29:09.664Z,99710.88
2023-04-24T13:31:37.429Z,99713.16
2023-04-24T13:34:05.516Z,99725.28
2023-04-24T13:36:34.574Z,99726.47
2023-04-24T13:39:02.300Z,99730.94
2023-04-24T13:41:29.912Z,99724.81
2023-04-24T13:43:57.578Z,99734.75
2023-04-24T13:46:25.192Z,99739.19
2023-04-24T13:48:53.451Z,99741.72
2023-04-24T13:51:21.134Z,99753.88
2023-04-24T13:53:50.124Z,99753.50
2023-04-24T13:56:17.848Z,99758.78
2023-04-24T13:58:45.692Z,99752.69
2023-04-24T14:01:14.157Z,99771.59
2023-04-24T14:03:42.089Z,99757.06
2023-04-24T14:06:10.126Z,99773.69
2023-04-24T14:08:38.783Z,99780.19
2023-04-24T14:11:09.244Z,99791.31
2023-04-24T14:13:39.017Z,99787.00
2023-04-24T14:16:08.794Z,99785.72
2023-04-24T14:18:37.389Z,99775.09
2023-04-24T14:21:06.272Z,99795.38
2023-04-24T14:23:38.112Z,99807.06
2023-04-24T14:26:07.646Z,99808.16
2023-04-24T14:28:35.627Z,99814.28
2023-04-24T14:31:04.182Z,99810.06
2023-04-24T14:33:32.027Z,99819.97
2023-04-24T14:35:59.750Z,99831.47
2023-04-24T14:38:27.999Z,99837.03
2023-04-24T14:41:06.663Z,99838.19
2023-04-24T14:43:38.081Z,99831.06
2023-04-24T14:46:06.802Z,99830.38
2023-04-24T14:48:34.953Z,99825.94
2023-04-24T14:51:04.785Z,99834.53
2023-04-24T14:53:32.967Z,99843.25
2023-04-24T14:56:00.634Z,99848.72
2023-04-24T14:58:29.360Z,99853.97
2023-04-24T15:00:58.639Z,99848.19
2023-04-24T15:03:28.101Z,99867.47
2023-04-24T15:05:56.215Z,99872.03
2023-04-24T15:08:24.284Z,99868.50
2023-04-24T15:10:52.415Z,99865.25
2023-04-24T15:13:21.634Z,99871.69
2023-04-24T15:15:49.364Z,99880.25
2023-04-24T15:18:18.474Z,99883.88
2023-04-24T15:20:47.776Z,99885.75
2023-04-24T15:23:15.620Z,99882.00
2023-04-24T15:25:44.380Z,99896.03
2023-04-24T15:28:12.845Z,99891.41
2023-04-24T15:30:41.887Z,99886.50
2023-04-24T15:33:09.712Z,99890.09
2023-04-24T15:35:38.756Z,99889.41
2023-04-24T15:38:09.508Z,99894.25
2023-04-24T15:40:37.160Z,99898.69
2023-04-24T15:43:04.873Z,99898.56
2023-04-24T15:45:35.670Z,99898.22
2023-04-24T15:48:03.865Z,99899.56
2023-04-24T15:50:31.832Z,99897.41
2023-04-24T15:53:01.167Z,99902.66
2023-04-24T15:55:29.250Z,99900.34
2023-04-24T15:57:56.968Z,99903.09
2023-04-24T16:00:25.029Z,99900.91
2023-04-24T16:02:53.036Z,99907.78
2023-04-24T16:05:22.889Z,99907.72
2023-04-24T16:07:54.191Z,99898.22
2023-04-24T16:10:23.375Z,99905.00
2023-04-24T16:12:51.622Z,99900.16
2023-04-24T16:15:19.298Z,99904.59
2023-04-24T16:17:47.330Z,99908.91
2023-04-24T16:20:15.587Z,99903.59
2023-04-24T16:22:43.272Z,99911.13
2023-04-24T16:25:11.864Z,99906.63
2023-04-24T16:27:41.306Z,99902.41
2023-04-24T16:30:19.744Z,99912.03
2023-04-24T16:32:47.518Z,99916.63
2023-04-24T16:35:15.341Z,99917.63
2023-04-24T16:37:43.053Z,99928.38
2023-04-24T16:40:12.308Z,99927.38
2023-04-24T16:42:41.453Z,99935.38
2023-04-24T16:45:10.413Z,99940.34
2023-04-24T16:47:50.571Z,99937.19
2023-04-24T16:50:18.426Z,99942.19
2023-04-24T16:52:46.271Z,99945.94
2023-04-24T16:55:14.190Z,99958.84
2023-04-24T16:57:46.635Z,99954.69
2023-04-24T17:00:15.451Z,99943.03
2023-04-24T17:02:45.020Z,99951.06
2023-04-24T17:05:20.274Z,99948.59
2023-04-24T17:07:48.235Z,99953.09
2023-04-24T17:10:19.113Z,99953.78
2023-04-24T17:12:48.201Z,99957.16
2023-04-24T17:15:19.246Z,99948.28
2023-04-24T17:17:51.183Z,99959.75
2023-04-24T17:20:22.990Z,99956.00
2023-04-24T17:22:56.150Z,99954.38
2023-04-24T17:25:26.276Z,99956.00
2023-04-24T17:27:57.277Z,99951.69
2023-04-24T17:30:25.260Z,99954.25
2023-04-24T17:32:53.182Z,99954.53
2023-04-24T17:35:22.788Z,99958.22
2023-04-24T17:37:50.887Z,99957.78
2023-04-24T17:40:18.872Z,99954.69
2023-04-24T17:42:46.716Z,99960.06
2023-04-24T17:45:16.369Z,99961.88
2023-04-24T17:47:44.093Z,99968.28
2023-04-24T17:50:12.236Z,99973.69
2023-04-24T17:52:40.044Z,99972.44
2023-04-24T17:55:08.377Z,99969.34
2023-04-24T17:57:36.139Z,99966.72
2023-04-24T18:00:04.774Z,99967.78
2023-04-24T18:02:34.179Z,99973.22
2023-04-24T18:05:02.171Z,99976.13
2023-04-24T18:07:30.353Z,99972.41
2023-04-24T18:09:58.151Z,99978.50
2023-04-24T18:12:26.059Z,99979.97
2023-04-24T18:15:06.724Z,99982.25
2023-04-24T18:17:43.344Z,99982.84
2023-04-24T18:20:12.214Z,99989.06
2023-04-24T18:22:40.546Z,99986.16
2023-04-24T18:25:09.659Z,99987.38
2023-04-24T18:27:37.617Z,99988.84
2023-04-24T18:30:06.744Z,99993.72
2023-04-24T18:32:35.018Z,99994.56
2023-04-24T18:35:04.317Z,99989.75
2023-04-24T18:37:33.561Z,99992.47
2023-04-24T18:40:01.489Z,99999.53
2023-04-24T18:42:29.234Z,99999.13
2023-04-24T18:45:01.183Z,100003.72
2023-04-24T18:47:29.263Z,100000.78
2023-04-24T18:49:57.521Z,100005.56
2023-04-24T18:52:26.571Z,100007.88
2023-04-24T18:54:54.243Z,100017.69
2023-04-24T18:57:22.199Z,100023.72
2023-04-24T18:59:52.363Z,100023.75
2023-04-24T19:02:20.446Z,100020.38
2023-04-24T19:04:48.296Z,100032.06
2023-04-24T19:07:16.045Z,100036.81
2023-04-24T19:09:45.231Z,100037.47
2023-04-24T19:12:13.229Z,100044.31
2023-04-24T19:14:41.178Z,100044.72
2023-04-24T19:17:10.254Z,100041.84
2023-04-24T19:19:38.009Z,100052.22
2023-04-24T19:22:07.399Z,100045.34
2023-04-24T19:24:35.527Z,100054.06
2023-04-24T19:27:04.654Z,100058.88
2023-04-24T19:29:32.300Z,100056.19
2023-04-24T19:32:00.344Z,100057.84
2023-04-24T19:34:29.843Z,100047.22
2023-04-24T19:36:57.692Z,100053.72
2023-04-24T19:39:26.121Z,100052.03
2023-04-24T19:41:54.098Z,100048.50
2023-04-24T19:44:23.054Z,100060.78
2023-04-24T19:46:51.670Z,100050.16
2023-04-24T19:49:19.757Z,100059.94
2023-04-24T19:51:47.470Z,100044.56
2023-04-24T19:54:20.026Z,100043.31
2023-04-24T19:56:47.766Z,100049.53
2023-04-24T19:59:15.662Z,100046.22
2023-04-24T20:01:44.793Z,100041.63
2023-04-24T20:04:12.762Z,100037.91
2023-04-24T20:06:40.813Z,100043.72
2023-04-24T20:09:08.667Z,100038.72
2023-04-24T20:11:36.558Z,100040.00
2023-04-24T20:14:04.490Z,100038.13
2023-04-24T20:16:32.272Z,100037.91
2023-04-24T20:19:01.472Z,100044.34
2023-04-24T20:21:29.592Z,100049.75
2023-04-24T20:23:57.275Z,100044.53
2023-04-24T20:26:25.087Z,100039.97
2023-04-24T20:28:53.227Z,100043.50
2023-04-24T20:31:20.894Z,100040.81
2023-04-24T20:33:48.640Z,100033.31
2023-04-24T20:36:17.618Z,100040.81
2023-04-24T20:38:49.416Z,100038.94
2023-04-24T20:41:17.325Z,100045.59
2023-04-24T20:43:47.527Z,100031.69
2023-04-24T20:46:15.719Z,100048.28
2023-04-24T20:48:44.451Z,100040.59
2023-04-24T20:51:12.425Z,100043.09
2023-04-24T20:53:41.407Z,100044.97
2023-04-24T20:56:11.321Z,100054.75
2023-04-24T20:58:39.669Z,100049.53
2023-04-24T21:01:07.449Z,100047.69
2023-04-24T21:03:35.984Z,100044.97
2023-04-24T21:06:03.738Z,100037.47
2023-04-24T21:08:31.616Z,100045.16
2023-04-24T21:11:00.636Z,100044.13
2023-04-24T21:13:28.415Z,100043.91
2023-04-24T21:15:56.286Z,100048.69
2023-04-24T21:18:24.079Z,100039.97
2023-04-24T21:20:53.252Z,100039.94
2023-04-24T21:23:20.950Z,100050.97
2023-04-24T21:25:48.761Z,100040.38
2023-04-24T21:28:17.718Z,100043.72
2023-04-24T21:30:45.397Z,100042.44
2023-04-24T21:33:13.259Z,100043.50
2023-04-24T21:35:42.307Z,100045.78
2023-04-24T21:38:10.252Z,100051.19
2023-04-24T21:40:37.852Z,100054.28
2023-04-24T21:43:05.732Z,100049.06
2023-04-24T21:45:34.774Z,100046.59
2023-04-24T21:48:02.543Z,100046.38
2023-04-24T21:50:30.215Z,100043.06
2023-04-24T21:52:58.635Z,100050.34
2023-04-24T21:55:26.824Z,100044.91
2023-04-24T21:57:55.001Z,100050.31
2023-04-24T22:00:22.819Z,100059.28
2023-04-24T22:02:51.926Z,100051.63
2023-04-24T22:05:22.784Z,100056.16
2023-04-24T22:07:52.418Z,100060.94
2023-04-24T22:10:20.141Z,100060.31
2023-04-24T22:12:48.148Z,100060.97
2023-04-24T22:15:15.798Z,100054.09
2023-04-24T22:17:43.718Z,100061.56
2023-04-24T22:20:13.851Z,100058.84
2023-04-24T22:22:41.584Z,100060.94
2023-04-24T22:25:10.102Z,100058.63
2023-04-24T22:27:37.720Z,100067.75
2023-04-24T22:30:06.657Z,100062.59
2023-04-24T22:32:34.348Z,100066.94
2023-04-24T22:35:02.007Z,100069.22
2023-04-24T22:37:31.224Z,100058.66
2023-04-24T22:39:59.836Z,100070.31
2023-04-24T22:42:27.749Z,100061.34
2023-04-24T22:44:55.653Z,100066.78
2023-04-24T22:47:23.367Z,100066.53
2023-04-24T22:49:53.667Z,100065.94
2023-04-24T22:52:21.666Z,100058.84
2023-04-24T22:54:50.656Z,100060.91
2023-04-24T22:57:18.346Z,100062.34
2023-04-24T22:59:45.935Z,100060.94
2023-04-24T23:02:13.633Z,100064.25
2023-04-24T23:04:41.387Z,100060.31
2023-04-24T23:07:09.018Z,100060.09
2023-04-24T23:09:36.667Z,100059.47
2023-04-24T23:12:06.181Z,100059.88
2023-04-24T23:14:34.237Z,100050.31
2023-04-24T23:17:02.152Z,100055.50
2023-04-24T23:19:29.945Z,100051.97
2023-04-24T23:21:57.563Z,100059.66
2023-04-24T23:24:25.325Z,100063.59
2023-04-24T23:26:55.263Z,100055.22
2023-04-24T23:29:26.048Z,100063.56
2023-04-24T23:31:53.969Z,100060.25
2023-04-24T23:34:21.696Z,100049.06
2023-04-24T23:36:49.729Z,100057.97
2023-04-24T23:39:17.499Z,100054.22
2023-04-24T23:41:46.132Z,100051.13
2023-04-24T23:44:13.905Z,100047.59
2023-04-24T23:46:42.949Z,100050.28
2023-04-24T23:49:10.735Z,100044.91
2023-04-24T23:51:38.445Z,100044.91
2023-04-24T23:54:06.452Z,100035.56
2023-04-24T23:56:34.201Z,100033.88
2023-04-24T23:59:01.830Z,100028.69
